Time;durP1;ratioP1;P1;durP2;ratioP2;P2;SDS_P1;SDS_P2;PMS_P1;PMS_P2;Temp;Humidity;BMP_temperature;BMP_pressure;BME280_temperature;BME280_humidity;BME280_pressure;Samples;Min_cycle;Max_cycle;Signal;HPM_P1;HPM_P2
2022/09/10 00:01:45;;;;;;;4.68;4.43;;;21.70;79.80;;;;;;5052843;28;20194;-77
2022/09/10 00:04:13;;;;;;;5.07;4.63;;;21.70;79.80;;;;;;5052097;28;20190;-77
2022/09/10 00:06:40;;;;;;;9.15;5.47;;;21.70;79.90;;;;;;5054782;28;20230;-77
2022/09/10 00:09:06;;;;;;;5.00;4.53;;;21.70;80.00;;;;;;5051995;28;20222;-78
2022/09/10 00:11:34;;;;;;;4.53;4.25;;;21.60;79.80;;;;;;5052942;28;20188;-76
2022/09/10 00:14:02;;;;;;;6.00;5.45;;;21.60;80.20;;;;;;5048145;28;20623;-76
2022/09/10 00:16:28;;;;;;;5.40;4.85;;;21.60;79.70;;;;;;5052071;28;20188;-76
2022/09/10 00:18:56;;;;;;;4.65;4.25;;;21.50;80.30;;;;;;5050849;28;20192;-76
2022/09/10 00:21:22;;;;;;;4.95;4.38;;;21.50;79.20;;;;;;5045229;28;20212;-76
2022/09/10 00:23:48;;;;;;;4.75;4.35;;;21.40;79.00;;;;;;5050699;28;20218;-77
2022/09/10 00:26:18;;;;;;;5.22;4.72;;;21.50;79.30;;;;;;5050453;28;20218;-77
2022/09/10 00:28:44;;;;;;;5.68;5.28;;;21.40;78.10;;;;;;5055404;28;20295;-76
2022/09/10 00:31:10;;;;;;;7.35;5.63;;;21.40;79.20;;;;;;5054160;28;20425;-76
2022/09/10 00:33:36;;;;;;;5.05;4.63;;;21.50;80.40;;;;;;5051229;28;20183;-76
2022/09/10 00:36:04;;;;;;;5.72;4.60;;;21.50;80.60;;;;;;5050498;28;20241;-76
2022/09/10 00:38:31;;;;;;;5.15;4.80;;;21.50;79.20;;;;;;5052265;28;20591;-77
2022/09/10 00:41:04;;;;;;;9.75;4.90;;;21.50;81.10;;;;;;5048395;28;20179;-77
2022/09/10 00:43:54;;;;;;;6.22;5.15;;;21.60;80.50;;;;;;5053004;28;20198;-76
2022/09/10 00:46:35;;;;;;;5.53;5.00;;;21.60;80.00;;;;;;5045018;28;20176;-76
2022/09/10 00:49:04;;;;;;;7.72;4.65;;;21.50;79.00;;;;;;5048271;28;20328;-77
2022/09/10 00:51:34;;;;;;;4.80;4.45;;;21.60;81.30;;;;;;5048602;28;20190;-77
2022/09/10 00:54:01;;;;;;;9.23;5.10;;;21.60;80.50;;;;;;5045087;28;20203;-77
2022/09/10 00:56:28;;;;;;;5.60;5.07;;;21.50;79.70;;;;;;5050833;28;20179;-77
2022/09/10 00:58:54;;;;;;;5.22;4.82;;;21.50;79.40;;;;;;5048371;28;20196;-78
2022/09/10 01:01:20;;;;;;;5.65;5.25;;;21.50;80.00;;;;;;5049426;28;20195;-77
2022/09/10 01:03:48;;;;;;;5.32;4.93;;;21.50;80.10;;;;;;5047782;28;20188;-77
2022/09/10 01:06:14;;;;;;;9.65;5.35;;;21.50;81.50;;;;;;5053081;28;20186;-77
2022/09/10 01:08:40;;;;;;;5.20;4.82;;;21.50;81.80;;;;;;5050983;28;20266;-77
2022/09/10 01:11:15;;;;;;;5.50;5.00;;;21.60;81.10;;;;;;5049466;28;20188;-77
2022/09/10 01:14:13;;;;;;;5.90;5.47;;;21.50;80.10;;;;;;5054598;28;20560;-77
2022/09/10 01:16:41;;;;;;;5.15;4.65;;;21.50;80.10;;;;;;5025122;28;20196;-77
2022/09/10 01:19:21;;;;;;;4.93;4.57;;;21.50;81.70;;;;;;5018716;28;20235;-77
2022/09/10 01:22:01;;;;;;;5.03;4.63;;;21.50;81.20;;;;;;5021924;28;20200;-77
2022/09/10 01:24:42;;;;;;;5.72;5.22;;;21.50;79.70;;;;;;5022797;28;20189;-77
2022/09/10 01:27:31;;;;;;;5.60;5.10;;;21.50;81.60;;;;;;5020874;28;20199;-77
2022/09/10 01:30:30;;;;;;;5.63;4.78;;;21.50;81.40;;;;;;5030638;28;20262;-77
2022/09/10 01:33:28;;;;;;;5.00;4.65;;;21.40;80.20;;;;;;5022512;28;20199;-77
2022/09/10 01:36:01;;;;;;;4.85;4.47;;;21.40;79.90;;;;;;5024053;28;20199;-77
2022/09/10 01:38:34;;;;;;;5.28;4.88;;;21.40;79.50;;;;;;5009649;28;20722;-77
2022/09/10 01:41:00;;;;;;;5.63;5.35;;;21.40;79.50;;;;;;5026503;28;20195;-77
2022/09/10 01:43:26;;;;;;;7.18;4.97;;;21.40;79.90;;;;;;5028074;28;21056;-77
2022/09/10 01:46:15;;;;;;;4.65;4.35;;;21.40;80.00;;;;;;5020131;28;20195;-77
2022/09/10 01:49:04;;;;;;;5.75;5.10;;;21.40;79.70;;;;;;5025498;28;20239;-77
2022/09/10 01:52:03;;;;;;;5.38;4.95;;;21.40;79.50;;;;;;5027965;28;20191;-78
2022/09/10 01:54:55;;;;;;;4.78;4.47;;;21.40;81.40;;;;;;5047862;28;20190;-77
2022/09/10 01:57:27;;;;;;;4.97;4.57;;;21.50;81.20;;;;;;5049048;28;20186;-77
2022/09/10 02:00:12;;;;;;;5.25;4.82;;;21.40;80.50;;;;;;5050602;28;20213;-77
2022/09/10 02:03:06;;;;;;;5.82;5.30;;;21.30;79.90;;;;;;5048721;28;20183;-77
2022/09/10 02:05:35;;;;;;;4.88;4.45;;;21.30;80.30;;;;;;5046192;28;20833;-77
2022/09/10 02:08:07;;;;;;;5.28;4.75;;;21.30;80.70;;;;;;5051441;28;20215;-78
2022/09/10 02:10:33;;;;;;;5.28;4.82;;;21.30;81.00;;;;;;5050750;28;20219;-78
2022/09/10 02:12:59;;;;;;;5.75;5.20;;;21.40;81.70;;;;;;5055755;28;20175;-78
2022/09/10 02:15:27;;;;;;;5.28;5.00;;;21.40;82.20;;;;;;5046632;28;20183;-78
2022/09/10 02:17:54;;;;;;;9.10;4.82;;;21.40;81.60;;;;;;5048102;28;20250;-77
2022/09/10 02:20:20;;;;;;;6.85;5.40;;;21.30;81.00;;;;;;5050940;28;20618;-78
2022/09/10 02:22:55;;;;;;;4.38;4.18;;;21.30;80.50;;;;;;5048894;28;20268;-78
2022/09/10 02:25:23;;;;;;;8.82;5.43;;;21.30;82.10;;;;;;5046776;28;21596;-78
2022/09/10 02:27:48;;;;;;;4.22;4.03;;;21.30;83.00;;;;;;5051447;28;20626;-78
2022/09/10 02:30:15;;;;;;;6.13;5.25;;;21.30;81.70;;;;;;5047206;28;20218;-77
2022/09/10 02:32:41;;;;;;;6.50;4.95;;;21.20;81.00;;;;;;5044659;28;20189;-77
2022/09/10 02:35:08;;;;;;;5.90;4.88;;;21.20;82.20;;;;;;5049982;28;20184;-77
2022/09/10 02:37:34;;;;;;;4.78;4.47;;;21.20;81.10;;;;;;5049113;28;20253;-77
2022/09/10 02:40:00;;;;;;;5.30;4.80;;;21.10;81.10;;;;;;5044353;28;20715;-77
2022/09/10 02:42:25;;;;;;;5.10;4.78;;;21.10;81.70;;;;;;5047428;28;20240;-78
2022/09/10 02:44:52;;;;;;;4.05;3.90;;;21.20;81.90;;;;;;5047624;28;20249;-76
2022/09/10 02:47:18;;;;;;;5.57;4.38;;;21.20;81.30;;;;;;5049700;28;20259;-77
2022/09/10 02:49:44;;;;;;;4.97;4.43;;;21.20;82.70;;;;;;5050837;28;20217;-77
2022/09/10 02:52:11;;;;;;;6.22;5.10;;;21.20;81.60;;;;;;5043902;28;20267;-76
2022/09/10 02:54:37;;;;;;;5.63;4.40;;;21.20;81.40;;;;;;5047076;28;20187;-77
2022/09/10 02:57:03;;;;;;;5.03;4.63;;;21.20;81.10;;;;;;5047475;28;20184;-77
2022/09/10 02:59:29;;;;;;;5.68;5.13;;;21.20;81.20;;;;;;5050466;28;20194;-76
2022/09/10 03:01:55;;;;;;;7.05;5.05;;;21.30;82.70;;;;;;5047315;28;20683;-76
2022/09/10 03:04:21;;;;;;;6.68;4.53;;;21.30;83.50;;;;;;5046783;28;20188;-76
2022/09/10 03:06:48;;;;;;;4.65;4.45;;;21.30;83.30;;;;;;5045199;28;20195;-76
2022/09/10 03:09:14;;;;;;;5.32;4.93;;;21.30;83.70;;;;;;5051142;28;20609;-77
2022/09/10 03:11:40;;;;;;;4.65;4.45;;;21.30;83.20;;;;;;5053641;28;20187;-77
2022/09/10 03:14:08;;;;;;;6.25;4.75;;;21.30;83.00;;;;;;5052902;28;20188;-77
2022/09/10 03:16:34;;;;;;;5.07;4.78;;;21.30;83.00;;;;;;5052379;28;20714;-76
2022/09/10 03:19:00;;;;;;;4.55;4.25;;;21.30;83.70;;;;;;5057164;28;20207;-76
2022/09/10 03:21:25;;;;;;;4.97;4.53;;;21.40;83.60;;;;;;5051757;28;20207;-77
2022/09/10 03:23:53;;;;;;;5.47;4.95;;;21.30;83.30;;;;;;5054787;28;20208;-77
2022/09/10 03:26:20;;;;;;;5.15;4.75;;;21.30;82.30;;;;;;5052714;28;20692;-78
2022/09/10 03:28:46;;;;;;;5.07;4.70;;;21.30;82.00;;;;;;5049223;28;20203;-77
2022/09/10 03:31:13;;;;;;;4.70;4.50;;;21.30;82.10;;;;;;5053467;28;20191;-77
2022/09/10 03:33:40;;;;;;;5.15;4.85;;;21.30;81.90;;;;;;5053960;28;20203;-77
2022/09/10 03:36:06;;;;;;;5.25;4.78;;;21.30;81.60;;;;;;5051891;28;20187;-77
2022/09/10 03:38:32;;;;;;;4.90;4.55;;;21.30;81.40;;;;;;5048940;28;20193;-77
2022/09/10 03:41:00;;;;;;;5.18;4.78;;;21.20;81.40;;;;;;5050222;28;20218;-77
2022/09/10 03:43:26;;;;;;;5.30;4.90;;;21.20;81.30;;;;;;5049983;28;20264;-77
2022/09/10 03:45:52;;;;;;;6.68;4.57;;;21.20;81.50;;;;;;5049990;28;20191;-78
2022/09/10 03:48:19;;;;;;;5.93;4.60;;;21.20;83.10;;;;;;5056750;28;20183;-77
2022/09/10 03:50:45;;;;;;;4.80;4.50;;;21.20;82.30;;;;;;5051625;28;20927;-77
2022/09/10 03:53:16;;;;;;;4.88;4.47;;;21.20;81.60;;;;;;5052600;28;20188;-77
2022/09/10 03:55:43;;;;;;;5.70;4.57;;;21.20;81.50;;;;;;5057712;28;20739;-77
2022/09/10 03:58:09;;;;;;;4.57;4.28;;;21.20;81.40;;;;;;5048762;28;20199;-77
2022/09/10 04:00:35;;;;;;;5.40;4.45;;;21.20;81.50;;;;;;5048573;28;20183;-77
2022/09/10 04:03:01;;;;;;;6.53;4.53;;;21.20;81.60;;;;;;5049395;28;20191;-77
2022/09/10 04:05:28;;;;;;;5.57;4.93;;;21.20;81.30;;;;;;5051429;28;20265;-77
2022/09/10 04:07:57;;;;;;;4.97;4.57;;;21.10;81.30;;;;;;5051066;28;20262;-77
2022/09/10 04:10:24;;;;;;;4.95;4.47;;;21.10;81.30;;;;;;5048879;28;20215;-77
2022/09/10 04:12:52;;;;;;;4.95;4.60;;;21.20;83.50;;;;;;5054514;28;20194;-77
2022/09/10 04:15:18;;;;;;;4.85;4.50;;;21.20;83.90;;;;;;5050669;28;20172;-76
2022/09/10 04:17:50;;;;;;;4.32;4.13;;;21.20;83.50;;;;;;5049118;28;20188;-76
2022/09/10 04:20:21;;;;;;;5.10;4.55;;;21.20;83.30;;;;;;5050568;28;20907;-77
2022/09/10 04:22:48;;;;;;;4.32;4.13;;;21.20;83.40;;;;;;5049019;28;20188;-77
2022/09/10 04:25:14;;;;;;;4.60;4.25;;;21.10;83.90;;;;;;5047328;28;20183;-76
2022/09/10 04:27:41;;;;;;;4.85;4.45;;;21.10;84.30;;;;;;5047915;28;20210;-77
2022/09/10 04:30:08;;;;;;;4.97;4.63;;;21.10;84.80;;;;;;5050957;28;20211;-77
2022/09/10 04:32:34;;;;;;;5.00;4.60;;;21.10;84.90;;;;;;5057013;28;20352;-77
2022/09/10 04:35:01;;;;;;;5.55;5.00;;;21.10;85.10;;;;;;5051265;28;20278;-76
2022/09/10 04:37:27;;;;;;;4.85;4.55;;;21.20;85.10;;;;;;5055899;28;20275;-77
2022/09/10 04:39:53;;;;;;;4.75;4.45;;;21.10;84.60;;;;;;5057173;28;20180;-77
2022/09/10 04:42:19;;;;;;;5.63;4.78;;;21.10;83.70;;;;;;5049858;28;20199;-76
2022/09/10 04:44:45;;;;;;;4.78;4.47;;;21.10;83.70;;;;;;5051819;28;20275;-77
2022/09/10 04:47:11;;;;;;;6.60;5.25;;;21.00;83.00;;;;;;5083424;28;20184;-76
2022/09/10 04:49:37;;;;;;;5.45;4.95;;;21.00;82.80;;;;;;5047949;28;20690;-77
2022/09/10 04:52:03;;;;;;;5.53;5.03;;;21.00;83.30;;;;;;5052101;28;20183;-77
2022/09/10 04:54:29;;;;;;;8.50;5.10;;;21.10;83.20;;;;;;5053639;28;20568;-77
2022/09/10 04:56:55;;;;;;;5.05;4.75;;;21.10;83.70;;;;;;5048237;28;20180;-77
2022/09/10 04:59:21;;;;;;;4.43;4.20;;;21.10;83.10;;;;;;5055824;28;20691;-77
2022/09/10 05:01:49;;;;;;;5.07;4.63;;;21.10;83.30;;;;;;5051084;28;20180;-77
2022/09/10 05:04:15;;;;;;;5.82;4.97;;;21.10;84.40;;;;;;5064197;28;20213;-77
2022/09/10 05:06:41;;;;;;;4.68;4.38;;;21.20;85.40;;;;;;5050457;28;20233;-76
2022/09/10 05:09:07;;;;;;;7.75;5.72;;;21.20;85.30;;;;;;5052700;28;20342;-77
2022/09/10 05:11:33;;;;;;;5.53;4.53;;;21.20;85.00;;;;;;5050138;28;20736;-76
2022/09/10 05:13:59;;;;;;;5.72;5.35;;;21.20;84.50;;;;;;5049707;28;20199;-76
2022/09/10 05:16:24;;;;;;;5.53;5.05;;;21.10;84.40;;;;;;5051072;28;20181;-76
2022/09/10 05:18:50;;;;;;;6.43;5.35;;;21.10;84.00;;;;;;5051682;28;20635;-77
2022/09/10 05:21:17;;;;;;;5.25;4.90;;;21.10;84.50;;;;;;5052972;28;20172;-77
2022/09/10 05:23:43;;;;;;;5.97;5.30;;;21.20;84.70;;;;;;5052339;28;20180;-77
2022/09/10 05:26:09;;;;;;;5.90;5.47;;;21.20;83.80;;;;;;5048131;28;20259;-76
2022/09/10 05:28:35;;;;;;;6.65;4.90;;;21.20;83.50;;;;;;5049552;28;20318;-77
2022/09/10 05:31:00;;;;;;;5.40;4.90;;;21.20;83.20;;;;;;5046635;28;20176;-76
2022/09/10 05:33:26;;;;;;;5.28;4.78;;;21.20;83.30;;;;;;5047967;28;20270;-76
2022/09/10 05:35:52;;;;;;;5.95;5.40;;;21.20;83.40;;;;;;5055761;28;20183;-75
2022/09/10 05:38:18;;;;;;;5.53;5.13;;;21.30;84.50;;;;;;5054261;28;20180;-75
2022/09/10 05:40:44;;;;;;;5.85;5.43;;;21.30;83.40;;;;;;5049412;28;20190;-75
2022/09/10 05:43:13;;;;;;;6.65;6.03;;;21.30;83.40;;;;;;5052708;28;20180;-74
2022/09/10 05:45:38;;;;;;;7.68;5.22;;;21.40;83.50;;;;;;5047875;28;20179;-75
2022/09/10 05:48:04;;;;;;;5.55;4.95;;;21.40;83.40;;;;;;5048546;28;20186;-75
2022/09/10 05:50:30;;;;;;;5.53;5.15;;;21.50;83.80;;;;;;5051436;28;20218;-75
2022/09/10 05:52:55;;;;;;;9.52;5.65;;;21.50;84.20;;;;;;5053048;28;20180;-75
2022/09/10 05:55:21;;;;;;;9.65;5.55;;;21.60;84.40;;;;;;5052002;28;20682;-75
2022/09/10 05:57:47;;;;;;;5.18;4.68;;;21.70;84.70;;;;;;5048909;28;20180;-75
2022/09/10 06:00:14;;;;;;;5.57;5.28;;;21.70;84.00;;;;;;5049010;28;20179;-75
2022/09/10 06:02:40;;;;;;;5.78;5.32;;;21.70;84.70;;;;;;5049972;28;20183;-74
2022/09/10 06:05:07;;;;;;;6.45;5.78;;;21.80;84.50;;;;;;5048175;28;20207;-75
2022/09/10 06:07:33;;;;;;;6.10;5.57;;;21.80;84.40;;;;;;5048619;28;20186;-75
2022/09/10 06:10:01;;;;;;;4.85;4.65;;;21.90;84.20;;;;;;5046542;28;20210;-75
2022/09/10 06:12:27;;;;;;;6.00;5.60;;;22.00;84.40;;;;;;5055029;28;20178;-75
2022/09/10 06:14:53;;;;;;;5.80;5.32;;;22.10;84.50;;;;;;5048556;28;20187;-74
2022/09/10 06:17:18;;;;;;;5.63;5.22;;;22.20;84.50;;;;;;5052732;28;20183;-74
2022/09/10 06:19:45;;;;;;;4.93;4.63;;;22.30;84.00;;;;;;5053012;28;20236;-74
2022/09/10 06:22:11;;;;;;;5.15;4.90;;;22.40;83.90;;;;;;5052288;28;20185;-74
2022/09/10 06:24:37;;;;;;;5.60;5.10;;;22.50;83.50;;;;;;5048270;28;20197;-75
2022/09/10 06:27:04;;;;;;;6.10;5.57;;;22.50;83.20;;;;;;5053302;28;20742;-74
2022/09/10 06:29:32;;;;;;;5.80;5.28;;;22.60;83.20;;;;;;5047707;28;20207;-75
2022/09/10 06:31:58;;;;;;;5.65;5.00;;;22.70;82.90;;;;;;5052575;28;20302;-74
2022/09/10 06:34:24;;;;;;;5.40;5.07;;;22.70;82.90;;;;;;5051734;28;20183;-74
2022/09/10 06:36:50;;;;;;;5.72;5.22;;;22.80;82.60;;;;;;5063308;28;20271;-75
2022/09/10 06:39:16;;;;;;;6.00;5.60;;;22.90;82.10;;;;;;5050832;28;20266;-75
2022/09/10 06:41:42;;;;;;;6.07;5.47;;;22.90;82.30;;;;;;5046005;28;20183;-75
2022/09/10 06:44:09;;;;;;;6.63;6.03;;;22.90;81.10;;;;;;5049970;28;20192;-74
2022/09/10 06:46:35;;;;;;;6.78;6.32;;;22.90;81.10;;;;;;5054609;28;20188;-74
2022/09/10 06:49:02;;;;;;;6.60;5.90;;;22.90;81.10;;;;;;5056532;28;20214;-75
2022/09/10 06:51:28;;;;;;;7.40;6.78;;;22.90;81.30;;;;;;5050245;28;20187;-74
2022/09/10 06:53:55;;;;;;;7.57;5.75;;;22.90;81.00;;;;;;5048327;28;20218;-75
2022/09/10 06:56:21;;;;;;;7.25;5.75;;;23.00;81.00;;;;;;5052110;28;20184;-74
2022/09/10 06:58:47;;;;;;;6.18;5.57;;;23.00;81.00;;;;;;5053452;28;20209;-75
2022/09/10 07:01:16;;;;;;;7.40;6.20;;;23.00;81.10;;;;;;5052425;28;20198;-74
2022/09/10 07:03:43;;;;;;;6.38;5.80;;;23.10;80.50;;;;;;5049783;28;20187;-74
2022/09/10 07:06:12;;;;;;;6.50;6.00;;;23.10;80.70;;;;;;5054699;28;20187;-76
2022/09/10 07:08:38;;;;;;;8.68;6.18;;;23.10;80.60;;;;;;5051338;28;21621;-75
2022/09/10 07:11:06;;;;;;;8.50;6.10;;;23.20;80.50;;;;;;5051501;28;20188;-76
2022/09/10 07:13:33;;;;;;;7.10;6.22;;;23.20;80.60;;;;;;5049546;28;20925;-75
2022/09/10 07:15:59;;;;;;;7.40;6.80;;;23.30;80.50;;;;;;5048308;28;20187;-74
2022/09/10 07:18:26;;;;;;;8.65;6.25;;;23.40;80.90;;;;;;5054449;28;21025;-74
2022/09/10 07:20:51;;;;;;;7.88;5.65;;;23.40;80.80;;;;;;5053803;28;20302;-72
2022/09/10 07:23:20;;;;;;;6.78;6.22;;;23.50;80.30;;;;;;5049123;28;20344;-71
2022/09/10 07:25:46;;;;;;;7.50;6.25;;;23.50;80.00;;;;;;5053334;28;20187;-72
2022/09/10 07:28:15;;;;;;;5.68;5.28;;;23.50;80.10;;;;;;5050390;28;20657;-74
2022/09/10 07:30:42;;;;;;;6.22;5.82;;;23.60;80.20;;;;;;5056900;28;20263;-74
2022/09/10 07:33:09;;;;;;;6.95;5.32;;;23.80;80.30;;;;;;5055245;28;20178;-76
2022/09/10 07:35:37;;;;;;;7.65;6.95;;;23.90;80.30;;;;;;5049663;28;20242;-74
2022/09/10 07:38:04;;;;;;;8.50;6.78;;;23.90;79.00;;;;;;5052563;28;20195;-72
2022/09/10 07:40:30;;;;;;;6.30;5.90;;;24.00;78.70;;;;;;5049860;28;20195;-73
2022/09/10 07:42:57;;;;;;;6.10;5.70;;;24.00;79.20;;;;;;5053539;28;20180;-73
2022/09/10 07:45:24;;;;;;;6.35;5.90;;;24.00;79.20;;;;;;5055211;28;20187;-72
2022/09/10 07:47:50;;;;;;;8.52;6.13;;;24.10;79.10;;;;;;5056597;28;20282;-73
2022/09/10 07:50:16;;;;;;;5.15;4.82;;;24.20;79.40;;;;;;5053911;28;20665;-73
2022/09/10 07:52:42;;;;;;;5.97;5.47;;;24.30;79.30;;;;;;5054891;28;20188;-73
2022/09/10 07:55:08;;;;;;;10.73;6.35;;;24.40;79.00;;;;;;5055179;28;20266;-73
2022/09/10 07:57:36;;;;;;;5.90;5.45;;;24.60;78.70;;;;;;5051695;28;20683;-75
2022/09/10 08:00:05;;;;;;;5.68;5.28;;;24.70;78.40;;;;;;5046384;28;20322;-72
2022/09/10 08:02:31;;;;;;;6.88;6.18;;;24.80;78.10;;;;;;5055220;28;20182;-76
2022/09/10 08:04:57;;;;;;;8.07;6.57;;;24.90;78.10;;;;;;5050462;28;20880;-78
2022/09/10 08:07:22;;;;;;;7.40;6.50;;;25.00;77.70;;;;;;5052931;28;20576;-76
2022/09/10 08:09:48;;;;;;;7.63;5.70;;;25.10;77.80;;;;;;5055650;28;20215;-78
2022/09/10 08:12:15;;;;;;;6.75;6.05;;;25.30;77.90;;;;;;5053458;28;20187;-76
2022/09/10 08:14:41;;;;;;;8.60;6.03;;;25.40;77.30;;;;;;5049798;28;20817;-77
2022/09/10 08:17:07;;;;;;;6.78;6.18;;;25.50;76.80;;;;;;5057277;28;20553;-75
2022/09/10 08:19:33;;;;;;;7.05;6.65;;;25.70;76.80;;;;;;5051106;28;20188;-78
2022/09/10 08:21:58;;;;;;;7.28;6.68;;;25.80;76.60;;;;;;5054334;28;20206;-76
2022/09/10 08:24:24;;;;;;;6.50;6.10;;;26.00;75.50;;;;;;5054905;28;20642;-75
2022/09/10 08:26:51;;;;;;;7.97;6.32;;;26.10;75.50;;;;;;5052892;28;20681;-76
2022/09/10 08:29:18;;;;;;;7.05;6.28;;;26.30;74.90;;;;;;5087563;28;20211;-76
2022/09/10 08:31:43;;;;;;;6.85;6.20;;;26.60;74.40;;;;;;5049599;28;20227;-76
2022/09/10 08:34:11;;;;;;;6.93;6.13;;;26.90;74.20;;;;;;5055809;28;20621;-76
2022/09/10 08:36:38;;;;;;;6.90;6.13;;;27.30;73.90;;;;;;5055638;28;20186;-77
2022/09/10 08:39:04;;;;;;;6.32;5.93;;;27.50;72.70;;;;;;5051899;28;20192;-77
2022/09/10 08:41:51;;;;;;;6.85;6.05;;;27.70;72.60;;;;;;5055604;28;20195;-76
2022/09/10 08:44:41;;;;;;;7.72;6.78;;;27.90;72.00;;;;;;5054466;28;20699;-76
2022/09/10 08:47:09;;;;;;;7.10;6.50;;;28.20;71.50;;;;;;5051547;28;20190;-76
2022/09/10 08:49:46;;;;;;;7.10;6.60;;;28.30;71.20;;;;;;5051733;28;20229;-77
2022/09/10 08:52:59;;;;;;;7.45;6.85;;;28.50;70.90;;;;;;5056699;28;20206;-76
2022/09/10 08:55:36;;;;;;;7.03;6.25;;;28.60;70.50;;;;;;5021284;28;20358;-77
2022/09/10 08:58:17;;;;;;;9.65;7.40;;;28.90;71.10;;;;;;5019844;28;20200;-77
2022/09/10 09:00:44;;;;;;;7.45;6.70;;;28.90;68.70;;;;;;5002112;28;20185;-77
2022/09/10 09:03:39;;;;;;;7.70;6.75;;;28.90;69.40;;;;;;5019280;28;20193;-77
2022/09/10 09:06:09;;;;;;;5.85;5.47;;;28.80;68.90;;;;;;5018811;28;20196;-77
2022/09/10 09:08:45;;;;;;;7.45;6.85;;;28.70;69.60;;;;;;5018807;28;20745;-77
2022/09/10 09:11:13;;;;;;;7.75;7.00;;;28.60;69.90;;;;;;5018962;28;20760;-77
2022/09/10 09:13:57;;;;;;;7.70;7.03;;;28.60;69.90;;;;;;5019653;28;20283;-77
2022/09/10 09:16:31;;;;;;;6.70;6.30;;;28.60;69.60;;;;;;5017152;28;20566;-76
2022/09/10 09:19:19;;;;;;;9.10;7.00;;;28.50;69.30;;;;;;5020138;28;20250;-76
2022/09/10 09:21:53;;;;;;;7.70;6.78;;;28.40;69.70;;;;;;5004016;28;20649;-77
2022/09/10 09:24:40;;;;;;;7.68;6.90;;;28.30;70.40;;;;;;5016438;28;20192;-77
2022/09/10 09:27:11;;;;;;;6.78;6.25;;;28.20;70.70;;;;;;5017319;28;20192;-77
2022/09/10 09:29:45;;;;;;;7.60;7.00;;;28.20;70.50;;;;;;5037859;28;20345;-77
2022/09/10 09:32:15;;;;;;;7.63;6.75;;;28.20;70.90;;;;;;5048479;28;20175;-77
2022/09/10 09:34:45;;;;;;;7.50;6.93;;;28.10;70.60;;;;;;5057028;28;20226;-77
2022/09/10 09:37:17;;;;;;;6.70;6.00;;;28.00;71.00;;;;;;5051904;28;20261;-77
2022/09/10 09:40:05;;;;;;;8.02;7.30;;;27.90;70.90;;;;;;5051944;28;20672;-76
2022/09/10 09:42:46;;;;;;;7.38;6.78;;;27.80;71.00;;;;;;5051709;28;20171;-77
2022/09/10 09:45:41;;;;;;;6.53;6.20;;;27.70;71.30;;;;;;5052043;28;20199;-76
2022/09/10 09:48:14;;;;;;;6.70;6.25;;;27.70;71.60;;;;;;5045971;28;20672;-76
2022/09/10 09:50:42;;;;;;;7.00;6.55;;;27.80;71.10;;;;;;5054409;28;20241;-76
2022/09/10 09:53:17;;;;;;;7.35;6.72;;;27.80;71.70;;;;;;5046452;28;20191;-75
2022/09/10 09:55:47;;;;;;;7.03;6.28;;;28.00;70.80;;;;;;5046759;28;20278;-78
2022/09/10 09:58:25;;;;;;;6.88;6.13;;;28.30;71.40;;;;;;5048443;28;20211;-74
2022/09/10 10:01:04;;;;;;;7.63;6.90;;;28.70;70.60;;;;;;5050123;28;20210;-77
2022/09/10 10:03:51;;;;;;;6.65;6.05;;;29.20;68.70;;;;;;5051733;28;20187;-77
2022/09/10 10:06:21;;;;;;;6.75;6.28;;;29.70;68.90;;;;;;5052359;28;20186;-76
2022/09/10 10:08:55;;;;;;;7.15;6.55;;;30.30;68.40;;;;;;5048705;28;20215;-76
2022/09/10 10:11:22;;;;;;;14.48;6.72;;;30.90;66.70;;;;;;5047851;28;20179;-76
2022/09/10 10:13:50;;;;;;;6.35;5.95;;;31.60;65.70;;;;;;5049163;28;20231;-75
2022/09/10 10:16:18;;;;;;;7.53;6.25;;;32.40;66.60;;;;;;5052391;28;20274;-76
2022/09/10 10:18:45;;;;;;;5.78;5.28;;;33.30;64.30;;;;;;5051424;28;20186;-75
2022/09/10 10:21:19;;;;;;;6.70;6.20;;;34.30;61.00;;;;;;5050887;28;20237;-76
2022/09/10 10:23:46;;;;;;;7.30;6.38;;;35.00;60.20;;;;;;5050329;28;20193;-76
2022/09/10 10:26:16;;;;;;;6.43;6.00;;;35.60;59.60;;;;;;5051490;28;20253;-76
2022/09/10 10:28:47;;;;;;;5.95;5.60;;;35.90;60.30;;;;;;5052449;28;20352;-76
2022/09/10 10:31:14;;;;;;;10.90;6.10;;;36.10;59.50;;;;;;5051116;28;20183;-76
2022/09/10 10:33:51;;;;;;;8.27;5.93;;;36.40;59.90;;;;;;5047141;28;20695;-78
2022/09/10 10:36:46;;;;;;;6.00;5.63;;;37.00;57.40;;;;;;5048598;28;20205;-80
2022/09/10 10:39:30;;;;;;;6.65;5.53;;;37.60;56.10;;;;;;5047551;28;20212;-81
2022/09/10 10:42:12;;;;;;;5.63;5.20;;;38.20;57.70;;;;;;5049970;28;20237;-80
2022/09/10 10:45:03;;;;;;;5.00;4.70;;;38.90;57.00;;;;;;5044199;28;20198;-79
2022/09/10 10:47:39;;;;;;;6.07;5.38;;;39.40;52.90;;;;;;5051771;28;20203;-79
2022/09/10 10:50:14;;;;;;;6.82;5.45;;;39.60;52.40;;;;;;5048719;28;20206;-77
2022/09/10 10:52:52;;;;;;;5.53;4.75;;;39.50;53.60;;;;;;5048009;28;20642;-77
2022/09/10 10:55:42;;;;;;;4.50;4.32;;;39.50;54.70;;;;;;5050204;28;20647;-76
2022/09/10 10:58:34;;;;;;;5.13;4.93;;;39.70;52.80;;;;;;5045381;28;20232;-77
2022/09/10 11:01:25;;;;;;;5.25;4.88;;;39.80;52.70;;;;;;5039342;28;20194;-77
2022/09/10 11:04:02;;;;;;;5.40;5.00;;;40.10;50.40;;;;;;5048753;28;20688;-77
2022/09/10 11:06:37;;;;;;;5.28;4.85;;;39.80;54.00;;;;;;5045323;28;20194;-77
2022/09/10 11:09:28;;;;;;;4.78;4.43;;;39.40;52.00;;;;;;5049934;28;20210;-77
2022/09/10 11:12:06;;;;;;;7.22;4.82;;;38.90;50.20;;;;;;4998154;28;20207;-77
2022/09/10 11:14:52;;;;;;;5.15;4.85;;;38.10;53.70;;;;;;4998009;28;20290;-77
2022/09/10 11:17:40;;;;;;;4.55;3.90;;;37.60;53.70;;;;;;4996327;28;20743;-77
2022/09/10 11:20:22;;;;;;;6.03;4.95;;;36.70;53.90;;;;;;4996471;28;20486;-75
2022/09/10 11:22:57;;;;;;;3.83;3.50;;;35.40;57.90;;;;;;4981513;28;20188;-82
2022/09/10 11:25:31;;;;;;;2.35;2.25;;;34.40;58.00;;;;;;5001092;28;20275;-77
2022/09/10 11:28:30;;;;;;;2.40;1.85;;;32.70;60.50;;;;;;4997940;28;20581;-75
2022/09/10 11:31:16;;;;;;;1.50;1.40;;;31.80;61.60;;;;;;4936724;28;20203;-74
2022/09/10 11:33:56;;;;;;;2.50;1.52;;;30.80;64.10;;;;;;4939436;28;20195;-74
2022/09/10 11:36:32;;;;;;;1.23;1.20;;;29.90;65.40;;;;;;4938289;29;20835;-74
2022/09/10 11:39:15;;;;;;;2.50;1.25;;;29.20;66.40;;;;;;4938465;29;20197;-74
2022/09/10 11:41:45;;;;;;;2.70;1.58;;;28.40;66.90;;;;;;4937117;29;20757;-75
2022/09/10 11:44:48;;;;;;;5.35;1.90;;;27.50;69.20;;;;;;4940468;29;20348;-74
2022/09/10 11:47:21;;;;;;;3.42;2.15;;;26.80;70.50;;;;;;4939680;29;20195;-75
2022/09/10 11:50:09;;;;;;;1.90;1.80;;;26.10;72.30;;;;;;4997159;28;20224;-74
2022/09/10 11:52:37;;;;;;;2.28;1.95;;;25.80;72.30;;;;;;5010065;28;20205;-75
2022/09/10 11:55:07;;;;;;;2.90;2.13;;;25.50;74.10;;;;;;5028565;28;20200;-74
2022/09/10 11:57:38;;;;;;;8.27;3.85;;;25.10;75.60;;;;;;4994932;28;20188;-74
2022/09/10 12:00:18;;;;;;;7.78;4.95;;;24.80;76.10;;;;;;5008159;28;20201;-74
2022/09/10 12:02:58;;;;;;;7.00;3.70;;;24.70;76.60;;;;;;5011397;28;20191;-74
2022/09/10 12:06:22;;;;;;;3.92;3.63;;;24.40;78.10;;;;;;4990808;28;20334;-74
2022/09/10 12:09:23;;;;;;;2.80;2.47;;;24.00;79.70;;;;;;4989354;28;20242;-74
2022/09/10 12:11:50;;;;;;;2.70;2.50;;;23.70;81.50;;;;;;5010005;28;20180;-73
2022/09/10 12:14:18;;;;;;;2.95;2.67;;;23.50;79.10;;;;;;5007740;28;20188;-73
2022/09/10 12:17:13;;;;;;;4.00;2.50;;;23.20;84.30;;;;;;5008760;28;20190;-74
2022/09/10 12:19:48;;;;;;;2.58;2.38;;;23.00;83.40;;;;;;4968541;28;20281;-74
2022/09/10 12:22:37;;;;;;;1.85;1.83;;;22.80;82.80;;;;;;4955374;28;20200;-74
2022/09/10 12:25:04;;;;;;;2.85;2.30;;;22.80;82.30;;;;;;4952965;28;20213;-75
2022/09/10 12:27:51;;;;;;;2.15;2.05;;;22.70;80.80;;;;;;4966279;28;20194;-73
2022/09/10 12:30:35;;;;;;;2.10;1.92;;;22.70;80.70;;;;;;4970818;28;20609;-73
2022/09/10 12:33:21;;;;;;;4.10;2.25;;;22.70;83.00;;;;;;4951770;28;20285;-73
2022/09/10 12:35:50;;;;;;;3.67;2.17;;;22.90;84.10;;;;;;4915418;29;20209;-73
2022/09/10 12:38:43;;;;;;;2.40;2.30;;;23.20;85.30;;;;;;4933085;29;20289;-73
2022/09/10 12:41:21;;;;;;;3.88;2.97;;;23.40;83.80;;;;;;4950236;28;20218;-73
2022/09/10 12:43:47;;;;;;;3.17;2.88;;;23.50;85.30;;;;;;4933595;28;20965;-74
2022/09/10 12:46:12;;;;;;;6.38;2.83;;;23.80;83.70;;;;;;4956643;28;20198;-73
2022/09/10 12:48:49;;;;;;;3.72;2.75;;;23.90;83.60;;;;;;4946893;28;20681;-75
2022/09/10 12:51:30;;;;;;;5.85;3.33;;;24.10;83.80;;;;;;4956086;28;20202;-75
2022/09/10 12:54:11;;;;;;;5.13;3.00;;;24.40;84.90;;;;;;4951677;28;20338;-74
2022/09/10 12:57:02;;;;;;;5.43;3.25;;;24.60;82.60;;;;;;4954194;28;20281;-75
2022/09/10 12:59:59;;;;;;;4.22;3.28;;;24.70;80.80;;;;;;4967069;28;20194;-75
2022/09/10 13:02:36;;;;;;;3.00;2.80;;;25.00;79.40;;;;;;4972582;28;20230;-75
2022/09/10 13:05:20;;;;;;;3.88;2.97;;;25.40;79.40;;;;;;4967608;28;21046;-75
2022/09/10 13:07:55;;;;;;;5.82;3.22;;;25.90;80.30;;;;;;4970814;28;20286;-75
2022/09/10 13:10:27;;;;;;;5.00;3.40;;;26.10;80.00;;;;;;4969317;28;20217;-75